CheckWX is a tool to help pilots better visualize weather data.  It is not intended as a substitute for an official pre-flight weather briefing.

08:34:42 UTC

KCCA METAR
Clinton Municipal Airport
Clinton, Arkansas, USA
Current

20 mins ago

KCCA 240815Z AUTO 09003KT 1 1/2SM -RA OVC007 08/08 A2982 RMK AO2
Observed
Feb-24 @ 08:15 UTC
Wind
  • 090° at 3 KTS
Visibility
1 1/2 SM
Flight Rules
IFR
Conditions
Light Rain
Cloud Levels
  • Overcast at 700' AGL
Temperature
C / 46°F
Dewpoint
C / 46°F
Humidity
100%
Altimeter
29.82" Hg
Pressure
1009.82 hPa
Previous

40 mins ago

KCCA 240755Z AUTO 05003KT 6SM -RA OVC007 08/08 A2984 RMK AO2
Observed
Feb-24 @ 07:55 UTC
Wind
  • 050° at 3 KTS
Visibility
6 SM
Flight Rules
IFR
Conditions
Light Rain
Cloud Levels
  • Overcast at 700' AGL
Temperature
C / 46°F
Dewpoint
C / 46°F
Humidity
100%
Altimeter
29.84" Hg
Pressure
1010.52 hPa
Previous

60 mins ago

KCCA 240735Z AUTO 00000KT 2SM BR BKN006 OVC009 08/08 A2986 RMK AO2
Observed
Feb-24 @ 07:35 UTC
Visibility
2 SM
Flight Rules
IFR
Conditions
Mist
Cloud Levels
  • Broken at 600' AGL
  • Overcast at 900' AGL
Temperature
C / 46°F
Dewpoint
C / 46°F
Humidity
100%
Altimeter
29.86" Hg
Pressure
1011.22 hPa